Station: Stenhouse Bay  

  Atmospheric Gas Attenuation - ITU Rec 676-11   ----------------- dB/100km -----------------
Date Time Temp RH % AH g/m3 Dew Point Wind Direction Speed kph Gust kph Barometer mB Rainfall Since 9am 24GHz 47GHz 76GHz 122GHz 134GHz 241GHz
08/05 12:00 16.3 78 10.82 12.5 26 35 1031.7 0 24.2 29.5 48.4 127.3 126.6 437.2
08/05 11:50 17.3 76 11.2 13 22 28 1031.8 0 24.9 29.8 49.4 130.0 130.2 450.1
08/05 11:40 16.4 78 10.89 12.5 17 24 1031.9 0 24.3 29.6 48.7 127.9 127.4 440.1
08/05 11:30 16.3 80 11.1 12.8 20 32 1032 0 24.8 30.0 49.7 130.5 130.5 451.0
08/05 11:20 15 85 10.9 12.6 22 26 1032 0 24.4 30.1 49.6 130.4 129.9 448.7
08/05 11:10 14.9 85 10.83 12.5 22 26 1032.1 0 24.3 30.0 49.4 129.8 129.1 445.8
08/05 11:00 15.5 80 10.57 12.1 20 28 1032.2 0 23.7 29.4 47.9 125.8 124.5 429.7
08/05 10:50 15.7 84 11.24 13 19 22 1032.3 0 25.1 30.5 50.7 133.2 133.6 461.6
08/05 10:40 15.8 82 11.04 12.7 15 19 1032.4 0 24.7 30.1 49.7 130.7 130.6 451.1
08/05 10:30 15.6 83 11.04 12.7 15 30 1032.4 0 24.7 30.2 49.9 131.1 130.9 452.3
08/05 10:20 14.8 82 10.39 11.7 26 33 1032.3 0 23.3 29.3 47.6 124.9 123.1 424.7
08/05 10:10 15.8 81 10.9 12.5 24 28 1032.2 0 24.4 29.8 49.1 129.1 128.6 444.2
08/05 10:00 14.6 83 10.39 11.7 22 33 1032.2 0 23.3 29.4 47.7 125.2 123.4 425.8
08/05 09:50 15.6 77 10.24 11.7 20 28 1032 0 23.0 28.8 46.4 121.9 119.7 413.0
08/05 09:40 15.6 80 10.64 12.1 19 26 1032 0 23.8 29.5 48.1 126.4 125.3 432.5
08/05 09:30 14.8 82 10.39 11.8 22 33 1032 0 23.3 29.3 47.5 124.9 123.0 424.6
08/05 09:20 14.1 89 10.8 12.3 19 22 1032 0 24.2 30.2 49.8 130.8 130.0 448.9
08/05 09:10 13.8 89 10.6 12.1 24 28 1032.1 0 23.8 30.0 49.1 128.9 127.7 440.6
08/05 09:00 13.9 87 10.43 11.8 30 37 1032 0 23.5 29.7 48.3 126.8 125.1 431.6
08/05 08:50 14.7 84 10.58 12 32 35 1031.9 0 23.7 29.7 48.4 127.2 125.9 434.5
08/05 08:40 14.9 79 10.07 11.3 17 24 1031.9 0 22.6 28.7 46.1 121.1 118.4 408.4
08/05 08:30 15 75 9.62 10.6 20 33 1031.8 0 21.7 27.9 44.2 115.9 112.1 386.2
08/05 08:20 14.9 76 9.69 10.7 24 28 1031.8 0 21.8 28.1 44.5 116.8 113.2 390.1
08/05 08:10 15 77 9.87 11 20 26 1031.6 0 22.2 28.3 45.2 118.6 115.5 398.2
08/05 08:00 14.9 73 9.3 10.1 22 35 1031.5 0 21.0 27.4 42.9 112.5 107.8 371.4
08/05 07:50 15.1 74 9.55 10.5 17 20 1031.3 0 21.5 27.7 43.8 114.9 110.9 382.3
08/05 07:40 15 76 9.75 10.8 17 24 1031.1 0 22.0 28.1 44.7 117.2 113.8 392.2
08/05 07:30 14.8 73 9.25 10 20 32 1031 0 20.9 27.3 42.7 112.0 107.3 369.4
08/05 07:20 14.8 74 9.37 10.2 20 24 1030.9 0 21.2 27.5 43.2 113.3 108.9 375.1
08/05 07:10 14.8 74 9.37 10.2 22 28 1030.9 0 21.2 27.5 43.2 113.3 108.9 375.1
08/05 07:00 14.8 76 9.63 10.6 20 35 1030.8 0 21.7 28.0 44.3 116.2 112.4 387.4
08/05 06:50 14.8 74 9.37 10.2 15 20 1030.7 0 21.2 27.5 43.2 113.3 108.8 375.0
08/05 06:40 14.9 75 9.56 10.5 20 28 1030.7 0 21.6 27.8 43.9 115.2 111.3 383.5
08/05 06:30 14.8 74 9.37 10.2 22 33 1030.7 0 21.2 27.5 43.2 113.3 108.8 375.0
08/05 06:20 14.7 73 9.19 9.9 15 19 1030.7 0 20.8 27.3 42.5 111.5 106.6 367.0
08/05 06:10 14.8 74 9.37 10.2 20 24 1030.6 0 21.2 27.5 43.2 113.3 108.8 375.0
08/05 06:00 14.8 74 9.37 10.2 17 30 1030.7 0 21.2 27.5 43.2 113.3 108.8 375.0
08/05 05:50 14.7 73 9.19 9.9 24 30 1030.7 0 20.8 27.3 42.5 111.5 106.6 367.0
08/05 05:40 14.8 73 9.25 10 20 24 1030.7 0 20.9 27.3 42.7 112.0 107.2 369.3
08/05 05:30 14.8 72 9.12 9.8 22 33 1030.7 0 20.6 27.1 42.2 110.6 105.5 363.2
08/05 05:20 14.9 73 9.3 10.1 28 33 1030.7 0 21.0 27.4 42.9 112.4 107.8 371.2
08/05 05:10 14.8 73 9.25 10 22 26 1030.6 0 20.9 27.3 42.7 112.0 107.2 369.3
08/05 05:00 14.9 73 9.3 10.1 19 28 1030.6 0 21.0 27.4 42.9 112.4 107.8 371.2
08/05 04:50 14.7 72 9.07 9.7 19 22 1030.5 0 20.5 27.0 42.0 110.1 104.9 361.2
08/05 04:40 14.5 71 8.83 9.3 13 17 1030.5 0 20.0 26.7 41.1 107.8 102.0 350.9
08/05 04:30 14.2 69 8.43 8.6 20 32 1030.4 0 19.2 26.1 39.7 103.9 97.0 333.6
08/05 04:20 14.4 70 8.65 9 24 30 1030.4 0 19.6 26.4 40.5 106.0 99.7 342.9
08/05 04:10 14.5 70 8.71 9.1 28 30 1030.3 0 19.8 26.5 40.7 106.5 100.4 345.3
08/05 04:00 14.5 70 8.71 9.1 17 26 1030.4 0 19.8 26.5 40.7 106.5 100.4 345.3
08/05 03:50 14.5 68 8.46 8.8 20 30 1030.4 0 19.2 26.1 39.7 103.8 97.1 333.7
08/05 03:40 14.5 67 8.33 8.6 20 26 1030.4 0 19.0 25.9 39.1 102.4 95.4 327.7
08/05 03:30 14.6 68 8.51 8.8 26 39 1030.5 0 19.3 26.2 39.8 104.2 97.6 335.6
08/05 03:20 14.6 70 8.76 9.2 26 32 1030.5 0 19.9 26.6 40.8 106.9 100.9 347.2
08/05 03:10 14.7 71 8.94 9.5 20 28 1030.6 0 20.2 26.8 41.5 108.7 103.2 355.2
08/05 03:00 14.7 69 8.69 9.1 20 30 1030.6 0 19.7 26.4 40.5 106.0 99.9 343.5
08/05 02:50 14.7 70 8.81 9.3 20 30 1030.6 0 20.0 26.6 41.0 107.3 101.5 349.1
08/05 02:40 14.6 67 8.38 8.7 22 30 1030.7 0 19.1 26.0 39.3 102.9 95.9 329.7
08/05 02:30 14.7 67 8.44 8.6 24 41 1030.8 0 19.2 26.0 39.5 103.4 96.6 332.1
08/05 02:20 14.7 66 8.31 8.4 17 22 1030.9 0 18.9 25.8 39.0 102.0 94.9 326.1
08/05 02:10 14.7 67 8.44 8.6 26 32 1030.9 0 19.2 26.0 39.5 103.4 96.6 332.1
08/05 02:00 14.7 68 8.56 8.9 20 33 1030.9 0 19.4 26.2 40.0 104.7 98.2 337.6
08/05 01:50 14.6 62 7.76 7.4 20 28 1030.9 0 17.7 25.0 36.9 96.4 87.9 301.6
08/05 01:40 14.7 63 7.93 7.9 28 32 1031 0 18.1 25.2 37.5 98.0 90.0 308.9
08/05 01:30 14.9 67 8.54 8.8 30 39 1031 0 19.4 26.1 39.8 104.2 97.7 335.9
08/05 01:20 14.8 68 8.61 8.9 32 37 1030.9 0 19.5 26.3 40.1 105.1 98.7 339.5
08/05 01:10 14.8 69 8.74 9.3 26 33 1030.8 0 19.8 26.5 40.6 106.5 100.4 345.5
08/05 01:00 14.7 71 8.94 9.5 22 35 1030.9 0 20.2 26.8 41.5 108.8 103.2 355.3
08/05 00:50 14.7 73 9.19 9.9 19 22 1030.9 0 20.8 27.3 42.5 111.5 106.6 367.0
08/05 00:40 14.7 72 9.07 9.7 26 28 1030.9 0 20.5 27.1 42.0 110.2 105.0 361.4
08/05 00:30 14.8 69 8.74 9.2 26 37 1031 0 19.8 26.5 40.7 106.5 100.4 345.5
08/05 00:20 14.9 69 8.79 9.4 24 32 1031 0 19.9 26.5 40.8 106.9 101.0 347.4
08/05 00:10 14.7 68 8.56 9 28 33 1031 0 19.4 26.2 40.0 104.7 98.2 337.6
08/05 00:00 14.9 68 8.67 9.1 24 35 1031 0 19.7 26.4 40.3 105.6 99.4 341.9
07/05 23:50 14.9 67 8.54 8.8 20 24 1031.1 0 19.4 26.1 39.8 104.2 97.7 335.9
07/05 23:40 14.9 68 8.67 9.2 30 33 1031.1 0 19.7 26.4 40.3 105.6 99.4 341.9
07/05 23:30 14.6 69 8.63 9 22 35 1031.2 0 19.6 26.4 40.3 105.6 99.2 341.4
07/05 23:20 14.7 70 8.81 9.3 17 24 1031.2 0 20.0 26.6 41.0 107.4 101.5 349.3
07/05 23:10 14.6 73 9.14 9.8 24 33 1031.2 0 20.7 27.2 42.4 111.1 106.1 365.2
07/05 23:00 14.9 68 8.67 9.1 17 35 1031.2 0 19.7 26.4 40.3 105.6 99.4 341.9
07/05 22:50 14.7 66 8.31 8.4 19 24 1031.3 0 18.9 25.8 39.0 102.1 94.9 326.2
07/05 22:40 14.6 63 7.88 7.8 17 22 1031.4 0 18.0 25.2 37.4 97.7 89.5 307.1
07/05 22:30 14.7 64 8.06 8 19 30 1031.4 0 18.4 25.4 38.0 99.4 91.7 314.9
07/05 22:20 14.6 65 8.13 8.1 19 22 1031.5 0 18.5 25.6 38.3 100.3 92.7 318.5
07/05 22:10 14.6 66 8.26 8.3 20 24 1031.6 0 18.8 25.8 38.9 101.7 94.4 324.4
07/05 22:00 14.5 66 8.21 8.2 17 28 1031.6 0 18.7 25.8 38.7 101.3 93.9 322.6
07/05 21:50 14.5 66 8.21 8.2 15 19 1031.7 0 18.7 25.8 38.7 101.3 93.9 322.6
07/05 21:40 14.5 63 7.84 7.7 15 19 1031.6 0 17.9 25.2 37.3 97.4 89.1 305.7
07/05 21:30 14.5 63 7.84 7.5 19 32 1031.7 0 17.9 25.2 37.3 97.4 89.1 305.8
07/05 21:20 14.5 62 7.71 7.3 20 32 1031.7 0 17.6 25.0 36.7 96.0 87.4 299.9
07/05 21:10 14.4 62 7.66 7.2 17 22 1031.7 0 17.5 24.9 36.6 95.6 86.9 298.0
07/05 21:00 14.4 67 8.28 8.4 19 28 1031.7 0 18.9 25.9 39.0 102.2 94.9 326.2
07/05 20:50 14.3 65 7.99 7.8 20 24 1031.7 0 18.2 25.5 37.9 99.2 91.3 313.3
07/05 20:40 14.4 63 7.79 7.6 26 32 1031.7 0 17.8 25.1 37.1 97.0 88.6 303.9
07/05 20:30 14.4 62 7.66 7.2 20 32 1031.7 0 17.5 24.9 36.6 95.6 86.9 298.0
07/05 20:20 14.6 58 7.26 6.6 22 30 1031.6 0 16.7 24.2 35.0 91.3 81.6 279.5
07/05 20:10 14.5 63 7.84 7.5 24 30 1031.6 0 17.9 25.2 37.3 97.4 89.1 305.7
07/05 20:00 14.3 68 8.35 8.5 19 28 1031.7 0 19.0 26.0 39.4 103.0 96.0 329.8
07/05 19:50 14.2 66 8.06 8.1 19 24 1031.7 0 18.4 25.6 38.3 100.1 92.3 316.9
07/05 19:40 14.1 67 8.13 8.2 19 22 1031.7 0 18.6 25.7 38.6 101.0 93.3 320.5
07/05 19:30 14.1 69 8.37 8.5 28 37 1031.6 0 19.1 26.1 39.5 103.5 96.5 331.6

Last Refresh: 08-May-2026 12:09:22

Bureau of Meteorology